Página principal
METAR-TAF:

METAR-TAF

Aeroportos :

Morón de la Frontera, Espanha

Base aérea

latitude: 37-09N, longitude: 005-37W, altura: 87 m

Observação actual do tempo

O boletim foi feito há 4 horas e 50 minutos, às 00:00 UTC
Vento 7 kt de nor-nordeste, variando entre norte e nordeste
Temperatura 5°C
Humidade 60%
Pressão 1008 hPa
Visibilidade 10 km ou mais
sem nuvens abaixo de 1500 metros e sem cumulonimbus

METAR: LEMO 220000Z 03007KT 350V050 CAVOK 05/M02 Q1008 NOSIG

Hora: 05:50 (04:50 UTC)

Previsão

O boletim foi feito há 5 horas e 50 minutos, às 23:00 UTC
Previsão válida de 22 às 00 UTC a 22 às 09 UTC
Vento 6 kt de es-nordeste
Visibilidade 10 km ou mais
sem nuvens abaixo de 1500 metros e sem cumulonimbus

TAF: LEMO 212300Z 2200/2209 06006KT CAVOK

Observações e previsões do tempo de mais de 4000 aeroportos (mensagens METAR e TAF).

As estações disponíveis são os pontos amarelos e vermelhos sobre o mapa.

Mova o rato sobre o mapa para ver o nome da estação.

Depois clique no ponto para visualizar as observações e previsões meteorológicas.

Para alterar o mapa : clique nos botões verdes com uma cruz preta para aumentar o zoom; no botão verde com uma pitada de zoom; ou nas setas verdes para mapas adjacentes.


METAR-TAF: